Time;durP1;ratioP1;P1;durP2;ratioP2;P2;SDS_P1;SDS_P2;PMS_P1;PMS_P2;Temp;Humidity;BMP_temperature;BMP_pressure;BME280_temperature;BME280_humidity;BME280_pressure;Samples;Min_cycle;Max_cycle;Signal;HPM_P1;HPM_P2
2022/06/10 00:01:19;;;;;;;;;;;;;;;17.81;56.06;101060.88;4975834;28;6812;-75
2022/06/10 00:03:45;;;;;;;;;;;;;;;17.79;56.07;101054.75;4943078;28;7002;-75
2022/06/10 00:06:13;;;;;;;;;;;;;;;17.77;56.51;101056.44;4976194;28;7238;-75
2022/06/10 00:08:45;;;;;;;;;;;;;;;17.76;56.39;101054.66;4972544;28;7360;-75
2022/06/10 00:11:12;;;;;;;;;;;;;;;17.74;56.42;101058.91;4969483;28;6808;-75
2022/06/10 00:13:44;;;;;;;;;;;;;;;17.72;56.66;101058.00;4976800;28;6812;-75
2022/06/10 00:16:10;;;;;;;;;;;;;;;17.69;56.38;101056.19;4979981;28;7320;-75
2022/06/10 00:18:37;;;;;;;;;;;;;;;17.66;56.26;101060.41;4978484;28;6981;-75
2022/06/10 00:21:09;;;;;;;;;;;;;;;17.61;56.72;101063.75;4990572;28;7113;-75
2022/06/10 00:23:34;;;;;;;;;;;;;;;17.59;56.73;101061.94;4979296;28;7052;-75
2022/06/10 00:26:00;;;;;;;;;;;;;;;17.55;56.81;101058.38;4965634;28;6995;-75
2022/06/10 00:28:26;;;;;;;;;;;;;;;17.53;56.75;101060.03;4981642;28;7175;-75
2022/06/10 00:30:52;;;;;;;;;;;;;;;17.49;56.45;101066.84;4959571;28;6871;-75
2022/06/10 00:33:17;;;;;;;;;;;;;;;17.48;56.48;101069.41;4981470;28;6974;-76
2022/06/10 00:35:44;;;;;;;;;;;;;;;17.44;56.71;101070.13;4968904;28;7337;-75
2022/06/10 00:38:10;;;;;;;;;;;;;;;17.41;56.86;101059.69;4982391;28;7015;-75
2022/06/10 00:40:41;;;;;;;;;;;;;;;17.39;57.13;101067.41;4974956;28;6815;-75
2022/06/10 00:43:16;;;;;;;;;;;;;;;17.36;56.92;101067.31;4979264;28;8167;-75
2022/06/10 00:46:32;;;;;;;;;;;;;;;17.31;56.83;101064.59;4965687;28;11014;-75
2022/06/10 00:49:07;;;;;;;;;;;;;;;17.26;57.31;101060.09;4970818;28;8517;-75
2022/06/10 00:51:46;;;;;;;;;;;;;;;17.23;57.63;101066.06;4986096;28;7172;-75
2022/06/10 00:54:25;;;;;;;;;;;;;;;17.20;57.27;101061.66;4983244;28;6994;-76
2022/06/10 00:57:19;;;;;;;;;;;;;;;17.19;57.83;101064.19;4973851;28;7168;-75
2022/06/10 00:59:54;;;;;;;;;;;;;;;17.19;57.73;101064.19;4976596;28;6843;-75
2022/06/10 01:02:26;;;;;;;;;;;;;;;17.17;57.74;101063.25;4978846;28;7662;-75
2022/06/10 01:04:57;;;;;;;;;;;;;;;17.16;58.15;101061.50;4956929;28;6907;-75
2022/06/10 01:07:31;;;;;;;;;;;;;;;17.16;57.51;101059.81;4991567;28;6819;-75
2022/06/10 01:10:01;;;;;;;;;;;;;;;17.15;57.77;101055.47;4975656;28;6986;-75
2022/06/10 01:13:07;;;;;;;;;;;;;;;17.12;57.67;101055.34;4971705;28;6819;-75
2022/06/10 01:15:51;;;;;;;;;;;;;;;17.08;57.57;101054.38;4986320;28;7246;-75
2022/06/10 01:18:41;;;;;;;;;;;;;;;17.05;57.86;101056.00;4982286;28;7237;-76
2022/06/10 01:21:28;;;;;;;;;;;;;;;17.01;57.97;101051.53;4970314;28;7001;-76
2022/06/10 01:24:44;;;;;;;;;;;;;;;16.98;57.85;101054.88;4976603;28;8099;-75
2022/06/10 01:27:51;;;;;;;;;;;;;;;16.92;58.36;101055.56;4984163;28;6823;-76
2022/06/10 01:30:43;;;;;;;;;;;;;;;16.91;57.97;101060.72;4984236;28;7013;-75
2022/06/10 01:34:05;;;;;;;;;;;;;;;16.88;58.22;101058.00;4957910;28;7036;-75
2022/06/10 01:36:59;;;;;;;;;;;;;;;16.80;58.18;101061.25;4978968;28;7031;-75
2022/06/10 01:39:59;;;;;;;;;;;;;;;16.76;58.45;101061.94;4986356;28;7278;-75
2022/06/10 01:43:16;;;;;;;;;;;;;;;16.73;58.10;101063.56;4973373;28;6816;-75
2022/06/10 01:46:13;;;;;;;;;;;;;;;16.67;58.30;101059.06;4977385;28;6908;-75
2022/06/10 01:49:10;;;;;;;;;;;;;;;16.66;58.54;101054.72;4978971;28;6910;-75
2022/06/10 01:51:51;;;;;;;;;;;;;;;16.63;58.49;101059.78;4977934;28;7246;-75
2022/06/10 01:54:46;;;;;;;;;;;;;;;16.60;58.56;101064.84;4980564;28;7153;-76
2022/06/10 01:57:26;;;;;;;;;;;;;;;16.52;58.73;101060.31;4961139;28;6816;-76
2022/06/10 02:00:05;;;;;;;;;;;;;;;16.50;59.12;101051.59;4942597;28;7155;-76
2022/06/10 02:02:42;;;;;;;;;;;;;;;16.48;58.88;101054.97;4973773;28;6808;-76
2022/06/10 02:05:19;;;;;;;;;;;;;;;16.46;58.54;101056.59;4996873;28;6982;-76
2022/06/10 02:08:18;;;;;;;;;;;;;;;16.41;58.61;101064.22;4977582;28;7664;-76
2022/06/10 02:11:06;;;;;;;;;;;;;;;16.38;58.51;101056.34;4958853;28;7027;-76
2022/06/10 02:13:53;;;;;;;;;;;;;;;16.33;58.40;101065.69;4972010;28;6792;-76
2022/06/10 02:16:28;;;;;;;;;;;;;;;16.29;58.59;101058.63;4974215;28;7887;-76
2022/06/10 02:19:08;;;;;;;;;;;;;;;16.28;58.83;101069.78;4978643;28;8260;-76
2022/06/10 02:21:57;;;;;;;;;;;;;;;16.26;59.03;101068.88;4976561;28;7707;-76
2022/06/10 02:24:43;;;;;;;;;;;;;;;16.25;58.95;101073.16;4958259;28;7218;-76
2022/06/10 02:27:21;;;;;;;;;;;;;;;16.25;59.34;101075.72;4956976;28;6824;-76
2022/06/10 02:30:21;;;;;;;;;;;;;;;16.26;59.09;101076.63;4955578;28;6832;-75
2022/06/10 02:32:47;;;;;;;;;;;;;;;16.23;59.08;101072.22;4979325;28;8448;-75
2022/06/10 02:35:15;;;;;;;;;;;;;;;16.26;59.35;101076.63;4977547;28;8078;-76
2022/06/10 02:38:09;;;;;;;;;;;;;;;16.29;59.29;101074.13;4994236;28;6796;-77
2022/06/10 02:41:05;;;;;;;;;;;;;;;16.32;59.56;101084.59;4982558;28;7043;-77
2022/06/10 02:44:07;;;;;;;;;;;;;;;16.38;59.66;101083.13;4981781;28;6907;-77
2022/06/10 02:47:07;;;;;;;;;;;;;;;16.45;59.79;101085.91;4973441;28;6994;-77
2022/06/10 02:49:35;;;;;;;;;;;;;;;16.54;59.65;101088.81;4981206;28;6900;-77
2022/06/10 02:52:01;;;;;;;;;;;;;;;16.63;59.58;101096.03;4968177;28;7035;-77
2022/06/10 02:54:36;;;;;;;;;;;;;;;16.71;59.96;101092.00;4964114;28;8622;-77
2022/06/10 02:57:27;;;;;;;;;;;;;;;16.79;59.70;101087.94;4961707;28;6984;-77
2022/06/10 03:03:22;;;;;;;;;;;;;;;16.99;60.01;101092.00;4971508;28;7335;-77
2022/06/10 03:06:31;;;;;;;;;;;;;;;17.07;59.54;101096.63;4976559;28;7253;-77
2022/06/10 03:09:37;;;;;;;;;;;;;;;17.20;59.65;101097.06;4976632;28;7127;-78
2022/06/10 03:12:37;;;;;;;;;;;;;;;17.29;59.55;101094.75;4982581;28;6815;-78
2022/06/10 03:15:32;;;;;;;;;;;;;;;17.37;59.46;101100.16;4973835;28;6824;-76
2022/06/10 03:18:34;;;;;;;;;;;;;;;17.45;59.23;101101.28;4972016;28;7960;-76
2022/06/10 03:21:28;;;;;;;;;;;;;;;17.55;58.80;101104.16;4970808;28;6828;-76
2022/06/10 03:24:13;;;;;;;;;;;;;;;17.63;58.60;101103.53;4974107;28;8521;-77
2022/06/10 03:26:57;;;;;;;;;;;;;;;17.71;58.86;101106.38;4949957;28;6973;-76
2022/06/10 03:29:41;;;;;;;;;;;;;;;17.78;58.48;101097.06;4950927;28;7045;-77
2022/06/10 03:32:28;;;;;;;;;;;;;;;17.85;58.01;101093.81;4974614;28;7174;-77
2022/06/10 03:35:08;;;;;;;;;;;;;;;17.91;57.62;101099.19;4978336;28;7151;-77
2022/06/10 03:37:38;;;;;;;;;;;;;;;17.97;57.51;101103.66;4971194;28;7250;-77
2022/06/10 03:40:05;;;;;;;;;;;;;;;18.03;57.91;101105.56;4973467;28;6788;-77
2022/06/10 03:42:31;;;;;;;;;;;;;;;18.08;57.68;101105.72;4979903;28;6800;-77
2022/06/10 03:44:58;;;;;;;;;;;;;;;18.12;57.79;101103.25;4980582;28;7948;-77
2022/06/10 03:47:37;;;;;;;;;;;;;;;18.18;57.02;101113.81;4960361;28;6796;-76
2022/06/10 03:50:14;;;;;;;;;;;;;;;18.23;56.97;101105.25;4978843;28;8610;-76
2022/06/10 03:52:41;;;;;;;;;;;;;;;18.29;57.12;101111.50;4943060;28;8492;-76
2022/06/10 03:55:09;;;;;;;;;;;;;;;18.34;56.69;101106.44;4974082;28;6820;-76
2022/06/10 03:57:35;;;;;;;;;;;;;;;18.40;56.79;101114.41;4983754;28;6804;-76
2022/06/10 04:00:04;;;;;;;;;;;;;;;18.46;56.62;101114.56;4960756;28;8474;-76
2022/06/10 04:02:29;;;;;;;;;;;;;;;18.52;56.55;101115.56;4990232;28;7649;-76
2022/06/10 04:04:55;;;;;;;;;;;;;;;18.54;56.54;101114.75;4977042;28;6950;-76
2022/06/10 04:07:21;;;;;;;;;;;;;;;18.58;56.45;101119.19;4978591;28;6921;-77
2022/06/10 04:09:48;;;;;;;;;;;;;;;18.62;56.11;101117.56;4986741;28;6787;-77
2022/06/10 04:12:15;;;;;;;;;;;;;;;18.64;56.37;101123.69;4978170;28;6808;-77
2022/06/10 04:14:42;;;;;;;;;;;;;;;18.66;56.04;101122.00;4952419;28;6845;-77
2022/06/10 04:17:10;;;;;;;;;;;;;;;18.71;56.01;101122.13;4972879;28;6876;-76
2022/06/10 04:19:36;;;;;;;;;;;;;;;18.75;55.54;101123.94;4961003;28;7134;-76
2022/06/10 04:22:03;;;;;;;;;;;;;;;18.79;55.46;101124.91;4983668;28;7227;-77
2022/06/10 04:24:29;;;;;;;;;;;;;;;18.85;55.99;101127.69;4983042;28;6812;-77
2022/06/10 04:26:55;;;;;;;;;;;;;;;18.88;55.85;101128.63;4981741;28;6918;-77
2022/06/10 04:29:21;;;;;;;;;;;;;;;18.92;55.69;101124.38;4944563;28;7338;-77
2022/06/10 04:31:47;;;;;;;;;;;;;;;18.96;55.55;101131.41;4959483;28;7463;-77
2022/06/10 04:34:15;;;;;;;;;;;;;;;19.00;55.09;101127.19;4975063;28;7023;-76
2022/06/10 04:36:41;;;;;;;;;;;;;;;19.02;55.81;101133.31;4976956;28;6816;-76
2022/06/10 04:39:08;;;;;;;;;;;;;;;19.07;54.99;101138.63;4977060;23;7585;-76
2022/06/10 04:41:34;;;;;;;;;;;;;;;19.10;54.78;101144.78;4971276;23;6905;-76
2022/06/10 04:44:00;;;;;;;;;;;;;;;19.14;55.57;101141.41;4969305;28;6776;-76
2022/06/10 04:46:36;;;;;;;;;;;;;;;19.19;55.11;101141.53;4983361;28;8472;-75
2022/06/10 04:49:03;;;;;;;;;;;;;;;19.25;54.72;101144.28;4995337;28;6820;-75
2022/06/10 04:51:29;;;;;;;;;;;;;;;19.27;54.51;101141.72;4979614;28;6947;-75
2022/06/10 04:53:55;;;;;;;;;;;;;;;19.31;54.84;101138.34;5001573;28;6963;-76
2022/06/10 04:56:21;;;;;;;;;;;;;;;19.35;54.68;101145.34;4984026;28;7858;-76
2022/06/10 04:58:47;;;;;;;;;;;;;;;19.40;54.26;101142.88;4983839;28;6991;-75
2022/06/10 05:01:12;;;;;;;;;;;;;;;19.43;54.39;101141.22;5002448;28;7818;-75
2022/06/10 05:03:38;;;;;;;;;;;;;;;19.50;54.52;101147.44;4983974;28;6792;-75
2022/06/10 05:06:05;;;;;;;;;;;;;;;19.55;54.42;101138.03;4987085;28;7866;-75
2022/06/10 05:08:30;;;;;;;;;;;;;;;19.62;54.00;101138.19;4985234;28;6800;-75
2022/06/10 05:10:56;;;;;;;;;;;;;;;19.67;53.93;101141.75;5002664;28;8700;-75
2022/06/10 05:13:22;;;;;;;;;;;;;;;19.71;54.22;101136.66;5000774;28;6942;-75
2022/06/10 05:15:49;;;;;;;;;;;;;;;19.78;54.25;101140.25;4983075;28;7022;-75
2022/06/10 05:18:20;;;;;;;;;;;;;;;19.86;53.98;101132.63;4984013;28;6845;-75
2022/06/10 05:20:46;;;;;;;;;;;;;;;19.93;54.24;101138.84;4974963;28;6819;-75
2022/06/10 05:23:18;;;;;;;;;;;;;;;19.98;53.83;101132.03;4998122;28;6891;-76
2022/06/10 05:25:44;;;;;;;;;;;;;;;20.04;53.28;101139.97;4982835;28;6808;-75
2022/06/10 05:28:12;;;;;;;;;;;;;;;20.12;53.26;101138.41;4988457;28;6803;-74
2022/06/10 05:30:39;;;;;;;;;;;;;;;20.21;53.12;101145.50;4983395;28;6999;-75
2022/06/10 05:33:09;;;;;;;;;;;;;;;20.30;52.88;101139.63;4966183;28;9541;-75
2022/06/10 05:35:36;;;;;;;;;;;;;;;20.36;53.22;101139.72;4986286;28;6804;-75
2022/06/10 05:38:03;;;;;;;;;;;;;;;20.42;52.18;101132.91;4968472;28;8455;-74
2022/06/10 05:40:32;;;;;;;;;;;;;;;20.48;52.31;101136.50;4985117;28;6792;-74
2022/06/10 05:42:59;;;;;;;;;;;;;;;20.57;51.90;101138.41;4987110;28;6812;-75
2022/06/10 05:45:26;;;;;;;;;;;;;;;20.64;52.07;101140.25;4983031;28;7221;-75
2022/06/10 05:47:56;;;;;;;;;;;;;;;20.75;51.73;101147.38;5003705;28;6979;-75
2022/06/10 05:50:33;;;;;;;;;;;;;;;20.82;51.88;101149.28;5002137;28;7279;-75
2022/06/10 05:53:00;;;;;;;;;;;;;;;20.91;51.31;101151.19;5010095;28;6815;-75
2022/06/10 05:55:27;;;;;;;;;;;;;;;20.97;51.03;101145.19;4990380;28;6795;-75
2022/06/10 05:57:53;;;;;;;;;;;;;;;21.04;51.12;101147.91;4988019;28;7192;-75
2022/06/10 06:00:25;;;;;;;;;;;;;;;21.14;50.95;101153.28;5021238;28;7173;-75
2022/06/10 06:02:50;;;;;;;;;;;;;;;21.24;51.17;101142.16;5002435;28;7156;-74
2022/06/10 06:05:18;;;;;;;;;;;;;;;21.40;50.84;101142.41;5004354;28;7156;-75
2022/06/10 06:07:45;;;;;;;;;;;;;;;21.60;50.91;101147.88;5003299;28;6985;-75
2022/06/10 06:10:17;;;;;;;;;;;;;;;21.85;50.87;101145.66;4994577;28;6949;-75
2022/06/10 06:12:44;;;;;;;;;;;;;;;22.12;50.31;101142.50;4983544;28;7352;-75
2022/06/10 06:15:11;;;;;;;;;;;;;;;22.39;49.75;101146.31;5001586;28;7013;-75
2022/06/10 06:17:37;;;;;;;;;;;;;;;22.64;48.98;101148.31;4998665;28;7021;-75
2022/06/10 06:20:04;;;;;;;;;;;;;;;22.84;48.93;101154.59;4999087;28;6924;-75
2022/06/10 06:22:30;;;;;;;;;;;;;;;23.07;49.08;101163.53;4981625;28;7848;-75
2022/06/10 06:24:56;;;;;;;;;;;;;;;23.29;48.33;101169.84;4985884;28;7015;-75
2022/06/10 06:27:22;;;;;;;;;;;;;;;23.48;48.40;101167.34;4986387;28;7233;-75
2022/06/10 06:29:47;;;;;;;;;;;;;;;23.63;47.63;101167.44;4989379;28;8516;-75
2022/06/10 06:32:13;;;;;;;;;;;;;;;23.79;47.47;101167.53;4993428;28;6866;-75
2022/06/10 06:34:39;;;;;;;;;;;;;;;23.99;47.06;101171.09;4989440;28;7226;-75
2022/06/10 06:37:09;;;;;;;;;;;;;;;24.17;45.98;101172.09;5006547;28;6993;-76
2022/06/10 06:39:35;;;;;;;;;;;;;;;24.34;45.88;101171.28;5006917;28;6811;-75
2022/06/10 06:42:01;;;;;;;;;;;;;;;24.48;45.92;101161.69;5008206;28;6788;-75
2022/06/10 06:44:26;;;;;;;;;;;;;;;24.58;45.49;101169.56;5018912;28;7285;-75
2022/06/10 06:46:52;;;;;;;;;;;;;;;24.59;44.31;101163.47;5004554;28;6866;-75
2022/06/10 06:49:25;;;;;;;;;;;;;;;24.54;44.19;101161.72;5001208;28;7109;-76
2022/06/10 06:51:53;;;;;;;;;;;;;;;24.48;43.85;101163.44;5003241;28;7164;-75
2022/06/10 06:54:19;;;;;;;;;;;;;;;24.36;43.90;101162.53;5005978;28;6991;-76
2022/06/10 06:56:46;;;;;;;;;;;;;;;24.25;43.67;101166.88;4991376;28;6978;-76
2022/06/10 06:59:11;;;;;;;;;;;;;;;24.15;43.60;101172.94;5006030;28;6812;-76
2022/06/10 07:01:37;;;;;;;;;;;;;;;24.08;44.04;101174.66;5003332;28;7169;-76
2022/06/10 07:04:05;;;;;;;;;;;;;;;24.00;43.41;101175.47;5007051;28;6772;-75
2022/06/10 07:06:35;;;;;;;;;;;;;;;23.97;44.02;101183.31;5006410;28;6982;-75
2022/06/10 07:09:02;;;;;;;;;;;;;;;23.92;43.90;101185.03;4969572;28;7034;-75
2022/06/10 07:11:28;;;;;;;;;;;;;;;23.84;44.06;101181.50;4999993;28;7234;-76
2022/06/10 07:13:53;;;;;;;;;;;;;;;23.71;43.53;101189.28;4989243;28;6784;-76
2022/06/10 07:16:19;;;;;;;;;;;;;;;23.62;44.11;101199.69;5004534;28;7835;-75
2022/06/10 07:18:45;;;;;;;;;;;;;;;23.51;44.04;101188.28;5015304;28;7032;-75
2022/06/10 07:21:10;;;;;;;;;;;;;;;23.46;44.42;101189.97;5002001;28;7269;-75
2022/06/10 07:23:36;;;;;;;;;;;;;;;23.42;44.55;101192.59;5004716;28;6799;-75
2022/06/10 07:26:03;;;;;;;;;;;;;;;23.41;45.24;101193.44;5005072;28;6796;-75
2022/06/10 07:28:31;;;;;;;;;;;;;;;23.42;44.85;101196.97;5005705;28;6804;-75
2022/06/10 07:30:57;;;;;;;;;;;;;;;23.40;45.51;101199.56;5003180;28;7206;-75
2022/06/10 07:33:22;;;;;;;;;;;;;;;23.42;45.09;101199.56;5004055;28;6863;-75
2022/06/10 07:35:48;;;;;;;;;;;;;;;23.46;44.97;101201.34;5004166;28;7047;-76
2022/06/10 07:38:14;;;;;;;;;;;;;;;23.50;45.02;101199.63;4986875;28;7113;-75
2022/06/10 07:43:30;;;;;;;;;;;;;;;23.61;44.79;101204.91;5000963;28;7205;-75
2022/06/10 07:45:58;;;;;;;;;;;;;;;23.66;44.28;101196.25;5011319;28;6819;-75
2022/06/10 07:48:23;;;;;;;;;;;;;;;23.70;44.78;101200.63;4983291;28;8494;-76
2022/06/10 07:50:49;;;;;;;;;;;;;;;23.70;44.54;101198.00;5005025;28;6780;-75
2022/06/10 07:53:16;;;;;;;;;;;;;;;23.67;44.37;101208.47;5005400;28;7006;-75
2022/06/10 07:55:47;;;;;;;;;;;;;;;23.64;44.15;101202.31;5002377;28;6804;-76
2022/06/10 07:58:16;;;;;;;;;;;;;;;23.59;44.74;101199.69;4980204;28;7011;-76
2022/06/10 08:00:43;;;;;;;;;;;;;;;23.55;44.65;101201.41;5002907;28;7167;-75
2022/06/10 08:03:09;;;;;;;;;;;;;;;23.50;44.48;101199.63;4998231;28;6954;-76
2022/06/10 08:05:35;;;;;;;;;;;;;;;23.41;44.64;101195.19;5002435;28;6868;-75
2022/06/10 08:08:02;;;;;;;;;;;;;;;23.36;44.98;101192.53;5006802;28;6812;-75
2022/06/10 08:10:34;;;;;;;;;;;;;;;23.35;44.67;101185.53;5006291;28;7287;-75
2022/06/10 08:13:00;;;;;;;;;;;;;;;23.35;45.55;101182.06;5017063;28;6796;-75
2022/06/10 08:15:29;;;;;;;;;;;;;;;23.37;45.03;101186.47;5000538;28;8074;-75
2022/06/10 08:17:56;;;;;;;;;;;;;;;23.38;45.66;101180.38;5005333;28;6808;-75
2022/06/10 08:23:25;;;;;;;;;;;;;;;23.40;45.60;101178.63;5001885;28;6961;-76
2022/06/10 08:25:52;;;;;;;;;;;;;;;23.51;45.74;101181.28;5004802;28;7235;-76
2022/06/10 08:28:18;;;;;;;;;;;;;;;23.64;45.60;101179.63;5005618;28;7290;-75
2022/06/10 08:30:44;;;;;;;;;;;;;;;23.83;45.70;101179.75;5003261;28;7015;-75
2022/06/10 08:33:11;;;;;;;;;;;;;;;24.03;45.12;101178.97;5000593;28;6796;-75
2022/06/10 08:35:38;;;;;;;;;;;;;;;24.22;45.11;101172.09;5002009;28;6815;-75
2022/06/10 08:38:08;;;;;;;;;;;;;;;24.35;44.86;101173.88;4974827;28;6796;-76
2022/06/10 08:41:07;;;;;;;;;;;;;;;24.45;44.02;101173.91;5005174;28;6889;-75
2022/06/10 08:43:39;;;;;;;;;;;;;;;24.46;43.42;101168.69;4977310;28;6977;-75
2022/06/10 08:46:16;;;;;;;;;;;;;;;24.46;43.82;101170.41;5002470;28;7240;-75
2022/06/10 08:49:35;;;;;;;;;;;;;;;24.47;44.14;101173.06;5005180;28;7010;-75
2022/06/10 08:52:15;;;;;;;;;;;;;;;24.52;43.49;101157.34;5020332;28;8040;-75
2022/06/10 08:54:56;;;;;;;;;;;;;;;24.64;44.18;101162.59;4974107;28;6891;-75
2022/06/10 08:57:47;;;;;;;;;;;;;;;24.84;43.79;101166.16;5018558;28;7120;-75
2022/06/10 09:00:28;;;;;;;;;;;;;;;25.04;44.13;101159.19;4981890;28;7035;-75
2022/06/10 09:03:12;;;;;;;;;;;;;;;25.29;43.14;101153.88;4999753;28;7200;-75
2022/06/10 09:05:49;;;;;;;;;;;;;;;25.49;42.62;101159.13;4987634;28;6867;-75
2022/06/10 09:08:21;;;;;;;;;;;;;;;25.69;42.44;101154.72;4975905;28;6989;-75
2022/06/10 09:11:25;;;;;;;;;;;;;;;25.88;41.98;101153.81;5001616;28;6892;-76
2022/06/10 09:14:14;;;;;;;;;;;;;;;26.06;41.89;101158.09;4998415;28;6811;-76
2022/06/10 09:17:22;;;;;;;;;;;;;;;26.35;42.27;101161.47;4982073;28;8615;-75
2022/06/10 09:20:15;;;;;;;;;;;;;;;26.59;41.30;101162.22;4980263;28;8325;-76
2022/06/10 09:23:12;;;;;;;;;;;;;;;26.71;40.92;101158.63;4996518;28;7205;-75
2022/06/10 09:25:48;;;;;;;;;;;;;;;26.81;40.75;101176.09;4981201;28;6880;-75
2022/06/10 09:28:15;;;;;;;;;;;;;;;26.93;40.68;101172.50;4988672;28;7056;-75
2022/06/10 09:31:06;;;;;;;;;;;;;;;27.15;41.05;101167.94;5002472;28;7137;-75
2022/06/10 09:33:50;;;;;;;;;;;;;;;27.43;40.21;101170.28;4998148;28;6895;-75
2022/06/10 09:36:27;;;;;;;;;;;;;;;27.59;39.19;101164.91;4996518;28;7042;-75
2022/06/10 09:40:35;;;;;;;;;;;;;;;27.69;39.23;101166.56;4986404;28;6875;-75
2022/06/10 09:42:45;;;;;;;;;;;;;;;27.78;38.88;101160.28;4978455;28;7461;-75
2022/06/10 09:45:27;;;;;;;;;;;;;;;27.84;39.00;101154.97;4979172;28;7296;-75
2022/06/10 09:48:34;;;;;;;;;;;;;;;27.93;39.08;101156.59;4986311;28;6816;-76
2022/06/10 09:51:39;;;;;;;;;;;;;;;28.08;38.54;101152.91;4994627;28;7428;-76
2022/06/10 09:54:35;;;;;;;;;;;;;;;28.16;38.04;101149.28;5001097;28;7110;-76
2022/06/10 09:57:34;;;;;;;;;;;;;;;28.21;38.22;101148.38;5001765;28;6970;-76
2022/06/10 10:00:42;;;;;;;;;;;;;;;28.35;38.10;101152.59;4996744;28;7086;-77
2022/06/10 10:03:23;;;;;;;;;;;;;;;28.47;37.75;101154.16;5012529;28;7643;-76
2022/06/10 10:06:04;;;;;;;;;;;;;;;28.58;37.59;101151.38;5000148;28;6835;-76
2022/06/10 10:09:01;;;;;;;;;;;;;;;28.64;37.27;101152.13;5009889;28;6863;-73
2022/06/10 10:11:45;;;;;;;;;;;;;;;28.67;37.80;101149.44;5008219;28;6812;-74
2022/06/10 10:14:57;;;;;;;;;;;;;;;28.65;37.19;101143.31;5025401;28;7037;-74
2022/06/10 10:17:58;;;;;;;;;;;;;;;28.59;36.93;101138.16;5019426;28;7040;-74
2022/06/10 10:20:46;;;;;;;;;;;;;;;28.57;37.33;101144.34;5005239;28;7315;-74
2022/06/10 10:23:21;;;;;;;;;;;;;;;28.63;37.46;101134.56;5003865;28;7027;-74
2022/06/10 10:25:49;;;;;;;;;;;;;;;28.77;37.42;101136.09;5007453;28;6892;-74
2022/06/10 10:28:26;;;;;;;;;;;;;;;29.29;38.00;101133.50;5024732;28;7112;-74
2022/06/10 10:31:20;;;;;;;;;;;;;;;30.21;38.18;101129.88;5005255;28;6803;-75
2022/06/10 10:33:46;;;;;;;;;;;;;;;31.35;36.74;101125.34;5008627;28;7272;-74
2022/06/10 10:36:30;;;;;;;;;;;;;;;32.61;35.87;101120.72;5002542;28;6803;-75
2022/06/10 10:38:58;;;;;;;;;;;;;;;33.56;33.56;101122.78;5019902;28;8725;-75
2022/06/10 10:41:40;;;;;;;;;;;;;;;34.07;32.27;101126.19;5007365;28;6800;-75
2022/06/10 10:44:46;;;;;;;;;;;;;;;34.50;31.30;101118.25;5007248;28;6828;-75
2022/06/10 10:47:12;;;;;;;;;;;;;;;34.71;30.41;101124.50;4997566;28;6857;-75
2022/06/10 10:50:14;;;;;;;;;;;;;;;34.69;30.13;101117.50;5000105;28;6887;-74
2022/06/10 10:52:44;;;;;;;;;;;;;;;34.59;29.96;101130.34;5006646;28;6998;-74
2022/06/10 10:55:13;;;;;;;;;;;;;;;34.45;30.29;101122.91;5004141;28;6800;-74
2022/06/10 10:57:53;;;;;;;;;;;;;;;34.24;30.14;101128.19;5003478;28;7062;-74
2022/06/10 11:00:32;;;;;;;;;;;;;;;33.97;30.36;101124.78;4983551;28;6993;-75
2022/06/10 11:03:01;;;;;;;;;;;;;;;33.61;30.77;101134.13;4989283;28;6816;-75
2022/06/10 11:05:37;;;;;;;;;;;;;;;33.37;30.84;101136.75;5007356;28;6933;-74
2022/06/10 11:08:06;;;;;;;;;;;;;;;33.21;30.87;101139.06;5007668;28;7197;-74
2022/06/10 11:10:39;;;;;;;;;;;;;;;32.96;30.93;101135.47;5005809;28;6808;-74
2022/06/10 11:13:07;;;;;;;;;;;;;;;32.73;31.35;101138.88;5007169;28;6815;-74
2022/06/10 11:15:36;;;;;;;;;;;;;;;32.66;31.84;101126.78;5005392;28;6800;-74
2022/06/10 11:18:02;;;;;;;;;;;;;;;32.61;31.56;101126.91;4981879;28;6938;-74
2022/06/10 11:20:38;;;;;;;;;;;;;;;32.58;31.76;101124.34;5000222;28;6910;-74
2022/06/10 11:23:21;;;;;;;;;;;;;;;32.59;31.69;101126.06;5003881;28;6820;-74
2022/06/10 11:26:11;;;;;;;;;;;;;;;32.67;31.89;101118.75;5007259;28;6990;-74
2022/06/10 11:28:42;;;;;;;;;;;;;;;32.86;31.89;101123.41;5002346;28;6990;-74
2022/06/10 11:31:52;;;;;;;;;;;;;;;33.01;31.64;101111.44;5003146;28;6792;-74
2022/06/10 11:34:36;;;;;;;;;;;;;;;33.16;31.18;101120.63;4975362;28;7473;-74
2022/06/10 11:37:32;;;;;;;;;;;;;;;33.19;30.93;101114.34;5011798;28;6884;-74
2022/06/10 11:40:13;;;;;;;;;;;;;;;33.25;31.34;101117.66;5004658;28;6816;-74
2022/06/10 11:43:33;;;;;;;;;;;;;;;33.50;30.75;101118.56;5006024;28;6837;-75
2022/06/10 11:46:05;;;;;;;;;;;;;;;33.74;30.43;101111.47;4975013;28;6836;-74
2022/06/10 11:48:43;;;;;;;;;;;;;;;33.91;30.68;101107.28;5005847;28;6803;-74
2022/06/10 11:51:21;;;;;;;;;;;;;;;34.08;30.32;101098.66;5005465;28;6795;-74
2022/06/10 11:53:58;;;;;;;;;;;;;;;34.24;29.88;101098.06;5009924;28;6891;-75
2022/06/10 12:02:42;;;;;;;;;;;;;;;34.53;29.38;101104.88;4991419;28;7613;-74
2022/06/10 12:05:39;;;;;;;;;;;;;;;34.72;29.23;101093.41;4990026;28;6812;-74
2022/06/10 12:08:31;;;;;;;;;;;;;;;34.85;29.20;101094.63;4987753;28;7187;-74
2022/06/10 12:11:40;;;;;;;;;;;;;;;34.87;29.39;101092.75;4999602;28;6804;-74
2022/06/10 12:14:30;;;;;;;;;;;;;;;34.94;28.77;101090.69;4988318;28;7198;-74
2022/06/10 12:17:40;;;;;;;;;;;;;;;34.92;28.78;101089.91;4993080;28;7288;-74
2022/06/10 12:20:41;;;;;;;;;;;;;;;34.82;28.87;101078.81;5001844;28;7158;-74
2022/06/10 12:23:19;;;;;;;;;;;;;;;34.95;29.17;101079.09;5003382;28;6884;-74
2022/06/10 12:25:56;;;;;;;;;;;;;;;35.11;28.20;101083.78;5006073;28;7748;-74
2022/06/10 12:28:45;;;;;;;;;;;;;;;35.10;28.67;101076.72;4999501;28;6859;-74
2022/06/10 12:31:32;;;;;;;;;;;;;;;34.98;28.73;101078.09;4996820;28;6811;-75
2022/06/10 12:34:45;;;;;;;;;;;;;;;34.87;28.95;101070.63;5008142;28;6816;-74
2022/06/10 12:37:37;;;;;;;;;;;;;;;34.86;28.95;101080.38;5022703;28;7156;-74
2022/06/10 12:40:21;;;;;;;;;;;;;;;34.92;28.16;101079.25;4987454;28;8332;-74
2022/06/10 12:42:50;;;;;;;;;;;;;;;35.02;28.32;101064.59;5002136;28;6828;-74
2022/06/10 12:45:36;;;;;;;;;;;;;;;35.20;28.63;101072.72;4982853;28;6962;-74
2022/06/10 12:48:16;;;;;;;;;;;;;;;35.46;28.31;101068.00;5004493;28;6800;-74
2022/06/10 12:51:11;;;;;;;;;;;;;;;36.02;27.90;101064.50;5005705;28;6800;-74
2022/06/10 12:54:09;;;;;;;;;;;;;;;36.30;27.35;101058.69;4990506;28;6815;-74
2022/06/10 12:56:37;;;;;;;;;;;;;;;35.94;26.96;101046.22;4996405;28;6836;-74
2022/06/10 12:59:09;;;;;;;;;;;;;;;35.54;27.61;101065.84;4998831;28;6965;-74
2022/06/10 13:01:35;;;;;;;;;;;;;;;35.13;27.37;101065.94;4998858;28;7111;-74
2022/06/10 13:04:10;;;;;;;;;;;;;;;34.92;27.61;101057.94;5000439;28;7843;-74
2022/06/10 13:06:41;;;;;;;;;;;;;;;34.91;28.61;101064.22;5003427;28;6860;-74
2022/06/10 13:09:10;;;;;;;;;;;;;;;35.20;28.04;101062.06;5004237;28;6800;-74
2022/06/10 13:11:49;;;;;;;;;;;;;;;35.56;27.67;101058.66;5001318;28;6800;-74
2022/06/10 13:14:21;;;;;;;;;;;;;;;35.65;26.86;101052.03;4999111;28;9328;-75
2022/06/10 13:16:59;;;;;;;;;;;;;;;35.71;26.81;101051.75;5000147;28;6803;-74
2022/06/10 13:19:38;;;;;;;;;;;;;;;35.95;27.18;101053.28;4998165;28;6911;-74
2022/06/10 13:22:19;;;;;;;;;;;;;;;36.21;26.41;101048.47;5003261;28;6828;-74
2022/06/10 13:24:53;;;;;;;;;;;;;;;36.48;26.65;101046.22;5003722;28;6800;-74
2022/06/10 13:27:29;;;;;;;;;;;;;;;36.72;26.50;101042.38;5000716;28;6867;-74
2022/06/10 13:30:09;;;;;;;;;;;;;;;36.96;26.00;101033.06;4990933;28;7040;-73
2022/06/10 13:32:43;;;;;;;;;;;;;;;37.14;26.02;101040.22;5005546;28;7260;-74
2022/06/10 13:35:28;;;;;;;;;;;;;;;37.14;25.53;101041.06;4987095;28;6985;-74
2022/06/10 13:38:35;;;;;;;;;;;;;;;37.08;25.82;101038.69;5004032;28;7136;-74
2022/06/10 13:44:05;;;;;;;;;;;;;;;36.96;25.97;101041.06;5001886;28;8008;-74
2022/06/10 13:46:33;;;;;;;;;;;;;;;37.01;25.39;101040.81;5001187;28;6981;-74
2022/06/10 13:49:43;;;;;;;;;;;;;;;37.05;25.19;101041.56;4999758;28;6872;-74
2022/06/10 13:52:24;;;;;;;;;;;;;;;36.96;25.34;101038.41;5000160;28;8090;-75
2022/06/10 13:54:50;;;;;;;;;;;;;;;36.81;25.59;101032.06;5011529;28;7022;-74
2022/06/10 13:57:28;;;;;;;;;;;;;;;36.68;25.15;101041.69;4980858;28;6840;-74
2022/06/10 14:00:02;;;;;;;;;;;;;;;36.58;25.43;101035.94;5001421;28;6827;-74